createdAt,value
2023-03-22T00:01:31.023Z,4.82
2023-03-22T00:03:59.453Z,4.78
2023-03-22T00:06:27.693Z,4.90
2023-03-22T00:08:55.766Z,4.80
2023-03-22T00:11:25.896Z,3.75
2023-03-22T00:13:55.398Z,4.32
2023-03-22T00:16:23.697Z,3.78
2023-03-22T00:18:51.921Z,3.40
2023-03-22T00:21:20.142Z,4.35
2023-03-22T00:23:48.253Z,4.22
2023-03-22T00:26:16.608Z,3.97
2023-03-22T00:28:44.747Z,4.38
2023-03-22T00:31:14.175Z,4.00
2023-03-22T00:33:42.257Z,3.60
2023-03-22T00:36:12.225Z,3.72
2023-03-22T00:38:43.825Z,3.17
2023-03-22T00:41:15.962Z,3.40
2023-03-22T00:43:44.826Z,3.65
2023-03-22T00:46:15.902Z,3.35
2023-03-22T00:48:44.001Z,3.25
2023-03-22T00:51:12.536Z,3.42
2023-03-22T00:53:43.065Z,4.40
2023-03-22T00:56:13.769Z,4.07
2023-03-22T00:58:42.243Z,4.35
2023-03-22T01:01:13.639Z,3.90
2023-03-22T01:03:44.379Z,4.43
2023-03-22T01:06:12.852Z,4.32
2023-03-22T01:08:40.927Z,4.15
2023-03-22T01:11:09.756Z,3.50
2023-03-22T01:13:38.554Z,3.72
2023-03-22T01:16:07.680Z,4.57
2023-03-22T01:18:35.813Z,4.60
2023-03-22T01:21:05.875Z,4.15
2023-03-22T01:23:34.085Z,5.13
2023-03-22T01:26:02.447Z,4.70
2023-03-22T01:28:30.779Z,4.43
2023-03-22T01:31:02.555Z,4.47
2023-03-22T01:33:30.986Z,3.85
2023-03-22T01:35:59.098Z,3.90
2023-03-22T01:38:28.560Z,4.47
2023-03-22T01:40:57.170Z,3.70
2023-03-22T01:43:25.324Z,4.72
2023-03-22T01:45:54.016Z,4.93
2023-03-22T01:48:27.433Z,5.25
2023-03-22T01:51:04.741Z,4.47
2023-03-22T01:53:41.579Z,4.35
2023-03-22T01:56:10.783Z,4.95
2023-03-22T01:58:39.834Z,5.07
2023-03-22T02:01:10.590Z,4.03
2023-03-22T02:03:46.085Z,4.50
2023-03-22T02:06:15.316Z,4.10
2023-03-22T02:08:45.812Z,3.97
2023-03-22T02:11:17.859Z,4.10
2023-03-22T02:14:14.044Z,3.83
2023-03-22T02:16:54.468Z,4.15
2023-03-22T02:19:45.548Z,4.35
2023-03-22T02:22:39.333Z,4.13
2023-03-22T02:25:43.740Z,4.28
2023-03-22T02:28:21.925Z,4.22
2023-03-22T02:31:18.450Z,4.05
2023-03-22T02:34:05.294Z,3.85
2023-03-22T02:36:46.195Z,4.43
2023-03-22T02:39:22.028Z,4.60
2023-03-22T02:42:03.976Z,4.45
2023-03-22T02:44:41.508Z,4.38
2023-03-22T02:47:17.464Z,4.18
2023-03-22T02:49:53.004Z,4.50
2023-03-22T02:52:30.758Z,4.88
2023-03-22T02:55:07.461Z,4.55
2023-03-22T02:57:41.731Z,4.45
2023-03-22T03:00:12.985Z,4.82
2023-03-22T03:02:45.387Z,4.97
2023-03-22T03:05:15.536Z,4.90
2023-03-22T03:07:46.191Z,4.82
2023-03-22T03:10:17.971Z,4.50
2023-03-22T03:12:46.230Z,4.88
2023-03-22T03:15:17.063Z,5.32
2023-03-22T03:17:59.410Z,5.07
2023-03-22T03:20:35.259Z,5.30
2023-03-22T03:23:14.473Z,5.35
2023-03-22T03:25:53.129Z,5.00
2023-03-22T03:28:30.139Z,4.03
2023-03-22T03:31:04.523Z,5.25
2023-03-22T03:33:36.416Z,4.82
2023-03-22T03:36:09.382Z,5.25
2023-03-22T03:38:42.066Z,5.97
2023-03-22T03:41:15.254Z,6.32
2023-03-22T03:43:44.817Z,5.13
2023-03-22T03:48:45.619Z,5.40
2023-03-22T03:51:13.681Z,5.10
2023-03-22T03:53:41.729Z,5.65
2023-03-22T03:56:11.764Z,5.47
2023-03-22T03:58:39.829Z,5.28
2023-03-22T04:01:08.789Z,5.85
2023-03-22T04:03:37.596Z,5.63
2023-03-22T04:06:06.414Z,5.65
2023-03-22T04:08:34.452Z,5.57
2023-03-22T04:11:02.516Z,5.80
2023-03-22T04:13:31.882Z,6.10
2023-03-22T04:16:02.029Z,6.45
2023-03-22T04:18:30.212Z,7.28
2023-03-22T04:20:58.269Z,7.00
2023-03-22T04:23:26.452Z,6.43
2023-03-22T04:25:54.800Z,6.05
2023-03-22T04:28:23.941Z,5.55
2023-03-22T04:30:54.098Z,5.72
2023-03-22T04:33:22.778Z,9.82
2023-03-22T04:35:56.653Z,5.65
2023-03-22T04:38:25.221Z,5.93
2023-03-22T04:40:53.312Z,6.03
2023-03-22T04:43:21.410Z,5.68
2023-03-22T04:45:49.502Z,6.45
2023-03-22T04:48:22.165Z,5.43
2023-03-22T04:50:53.370Z,6.18
2023-03-22T04:53:27.447Z,5.68
2023-03-22T04:55:57.057Z,5.05
2023-03-22T05:00:54.107Z,6.70
2023-03-22T05:03:23.794Z,5.70
2023-03-22T05:05:53.580Z,5.95
2023-03-22T05:08:22.557Z,6.47
2023-03-22T05:10:51.021Z,6.93
2023-03-22T05:13:19.334Z,6.88
2023-03-22T05:15:49.130Z,6.82
2023-03-22T05:18:17.267Z,7.22
2023-03-22T05:20:46.688Z,6.60
2023-03-22T05:23:19.064Z,6.95
2023-03-22T05:25:47.278Z,6.65
2023-03-22T05:28:15.374Z,7.22
2023-03-22T05:30:44.374Z,7.03
2023-03-22T05:33:13.071Z,7.72
2023-03-22T05:35:42.208Z,7.00
2023-03-22T05:38:11.936Z,7.40
2023-03-22T05:40:40.290Z,6.80
2023-03-22T05:43:09.059Z,7.53
2023-03-22T05:45:37.938Z,4.60
2023-03-22T05:48:06.507Z,6.32
2023-03-22T05:50:35.310Z,6.77
2023-03-22T05:53:04.128Z,6.53
2023-03-22T05:55:33.558Z,7.05
2023-03-22T05:58:02.849Z,8.15
2023-03-22T06:00:32.123Z,8.55
2023-03-22T06:03:03.748Z,7.63
2023-03-22T06:05:32.950Z,7.53
2023-03-22T06:08:01.376Z,7.32
2023-03-22T06:10:29.467Z,6.60
2023-03-22T06:12:59.054Z,6.57
2023-03-22T06:17:55.206Z,6.50
2023-03-22T06:20:23.247Z,6.47
2023-03-22T06:22:51.320Z,6.55
2023-03-22T06:25:19.624Z,6.63
2023-03-22T06:27:49.064Z,7.05
2023-03-22T06:30:19.140Z,7.55
2023-03-22T06:32:47.268Z,6.78
2023-03-22T06:35:15.562Z,6.90
2023-03-22T06:37:43.826Z,7.93
2023-03-22T06:40:12.746Z,7.25
2023-03-22T06:42:41.064Z,6.05
2023-03-22T06:45:09.826Z,7.70
2023-03-22T06:47:39.252Z,7.45
2023-03-22T06:50:08.020Z,7.53
2023-03-22T06:52:36.120Z,7.18
2023-03-22T06:55:04.726Z,8.13
2023-03-22T06:57:32.776Z,7.90
2023-03-22T07:00:00.900Z,8.70
2023-03-22T07:02:29.018Z,8.93
2023-03-22T07:04:58.433Z,8.45
2023-03-22T07:07:26.669Z,10.77
2023-03-22T07:09:56.925Z,9.80
2023-03-22T07:12:25.000Z,9.70
2023-03-22T07:14:53.200Z,8.55
2023-03-22T07:17:21.262Z,9.55
2023-03-22T07:19:49.316Z,11.73
2023-03-22T07:22:22.142Z,10.85
2023-03-22T07:24:56.506Z,12.00
2023-03-22T07:27:26.144Z,11.68
2023-03-22T07:29:54.228Z,12.30
2023-03-22T07:32:22.389Z,13.15
2023-03-22T07:34:50.681Z,11.98
2023-03-22T07:37:20.352Z,10.68
2023-03-22T07:39:48.396Z,12.13
2023-03-22T07:42:16.533Z,11.77
2023-03-22T07:44:47.132Z,12.07
2023-03-22T07:47:15.603Z,10.73
2023-03-22T07:49:43.688Z,10.45
2023-03-22T07:52:13.044Z,10.32
2023-03-22T07:54:42.648Z,9.75
2023-03-22T07:57:10.917Z,10.07
2023-03-22T07:59:40.168Z,10.10
2023-03-22T08:02:08.969Z,10.63
2023-03-22T08:04:37.262Z,9.70
2023-03-22T08:07:05.834Z,9.57
2023-03-22T08:09:34.221Z,9.80
2023-03-22T08:12:03.665Z,10.38
2023-03-22T08:17:05.752Z,8.98
2023-03-22T08:19:34.175Z,10.85
2023-03-22T08:22:02.216Z,9.57
2023-03-22T08:24:30.316Z,8.52
2023-03-22T08:26:58.397Z,9.55
2023-03-22T08:29:28.223Z,9.52
2023-03-22T08:32:01.972Z,10.32
2023-03-22T08:34:31.284Z,10.35
2023-03-22T08:36:59.352Z,10.30
2023-03-22T08:39:27.995Z,9.55
2023-03-22T08:41:56.259Z,10.45
2023-03-22T08:44:24.342Z,10.18
2023-03-22T08:46:54.140Z,9.35
2023-03-22T08:49:22.242Z,9.82
2023-03-22T08:51:50.321Z,10.35
2023-03-22T08:54:18.389Z,10.50
2023-03-22T08:56:46.725Z,11.73
2023-03-22T08:59:14.810Z,11.25
2023-03-22T09:01:43.046Z,10.25
2023-03-22T09:04:12.567Z,10.90
2023-03-22T09:09:11.429Z,10.52
2023-03-22T09:11:42.476Z,9.48
2023-03-22T09:14:10.765Z,8.57
2023-03-22T09:16:38.881Z,9.90
2023-03-22T09:19:07.325Z,10.73
2023-03-22T09:21:36.739Z,10.02
2023-03-22T09:26:33.033Z,9.55
2023-03-22T09:29:01.170Z,9.05
2023-03-22T09:31:29.447Z,7.78
2023-03-22T09:33:57.571Z,9.10
2023-03-22T09:36:25.673Z,8.65
2023-03-22T09:38:55.108Z,8.70
2023-03-22T09:43:57.205Z,7.53
2023-03-22T09:46:31.462Z,7.22
2023-03-22T09:49:02.191Z,8.23
2023-03-22T09:51:40.719Z,8.52
2023-03-22T09:54:18.391Z,7.40
2023-03-22T09:56:50.624Z,6.90
2023-03-22T09:59:24.549Z,7.43
2023-03-22T10:01:57.842Z,7.88
2023-03-22T10:04:46.594Z,7.80
2023-03-22T10:07:27.402Z,7.85
2023-03-22T10:10:07.099Z,6.95
2023-03-22T10:12:40.435Z,6.35
2023-03-22T10:15:15.272Z,6.00
2023-03-22T10:17:46.411Z,5.13
2023-03-22T10:20:26.485Z,6.25
2023-03-22T10:22:55.844Z,6.38
2023-03-22T10:27:54.167Z,4.55
2023-03-22T10:30:24.505Z,4.63
2023-03-22T10:32:58.468Z,4.50
2023-03-22T10:35:27.002Z,4.18
2023-03-22T10:37:57.158Z,4.22
2023-03-22T10:40:29.790Z,3.50
2023-03-22T10:43:01.071Z,3.75
2023-03-22T10:45:30.217Z,3.72
2023-03-22T10:48:02.774Z,2.90
2023-03-22T10:50:33.614Z,2.83
2023-03-22T10:53:06.800Z,3.17
2023-03-22T10:55:41.226Z,2.38
2023-03-22T10:58:14.917Z,2.35
2023-03-22T11:00:47.206Z,2.00
2023-03-22T11:03:28.914Z,1.75
2023-03-22T11:06:02.366Z,1.80
2023-03-22T11:08:30.440Z,1.92
2023-03-22T11:11:00.324Z,1.30
2023-03-22T11:13:29.599Z,1.52
2023-03-22T11:16:03.565Z,2.08
2023-03-22T11:18:33.243Z,2.17
2023-03-22T11:21:07.261Z,1.83
2023-03-22T11:23:38.516Z,1.85
2023-03-22T11:26:13.422Z,1.70
2023-03-22T11:28:46.896Z,1.73
2023-03-22T11:31:17.367Z,2.17
2023-03-22T11:33:57.059Z,2.03
2023-03-22T11:36:26.043Z,1.88
2023-03-22T11:38:58.810Z,2.05
2023-03-22T11:41:30.313Z,2.03
2023-03-22T11:44:02.045Z,1.75
2023-03-22T11:46:31.755Z,2.47
2023-03-22T11:49:03.161Z,2.15
2023-03-22T11:51:35.065Z,1.70
2023-03-22T11:54:10.057Z,2.00
2023-03-22T11:56:43.449Z,1.80
2023-03-22T11:59:16.699Z,1.73
2023-03-22T12:01:49.903Z,2.05
2023-03-22T12:04:22.492Z,1.95
2023-03-22T12:06:54.073Z,2.00
2023-03-22T12:09:29.316Z,1.90
2023-03-22T12:12:01.300Z,2.13
2023-03-22T12:14:33.699Z,1.70
2023-03-22T12:17:07.147Z,1.90
2023-03-22T12:19:49.521Z,2.35
2023-03-22T12:22:20.947Z,2.50
2023-03-22T12:24:49.281Z,2.17
2023-03-22T12:27:22.417Z,2.80
2023-03-22T12:29:55.767Z,2.03
2023-03-22T12:32:27.917Z,1.92
2023-03-22T12:35:14.099Z,2.25
2023-03-22T12:37:49.248Z,2.03
2023-03-22T12:40:22.820Z,2.20
2023-03-22T12:43:00.506Z,1.85
2023-03-22T12:45:32.728Z,1.70
2023-03-22T12:48:06.906Z,1.80
2023-03-22T12:50:39.785Z,1.65
2023-03-22T12:53:12.650Z,1.70
2023-03-22T12:55:42.052Z,1.58
2023-03-22T12:58:16.081Z,2.00
2023-03-22T13:00:48.848Z,1.52
2023-03-22T13:03:26.858Z,1.67
2023-03-22T13:06:03.186Z,1.80
2023-03-22T13:09:01.222Z,1.80
2023-03-22T13:11:29.442Z,2.00
2023-03-22T13:13:58.898Z,2.10
2023-03-22T13:16:52.075Z,2.17
2023-03-22T13:19:37.984Z,2.50
2023-03-22T13:22:21.889Z,2.13
2023-03-22T13:25:01.210Z,1.80
2023-03-22T13:27:38.871Z,1.88
2023-03-22T13:30:17.832Z,1.73
2023-03-22T13:32:54.557Z,1.70
2023-03-22T13:35:28.186Z,2.58
2023-03-22T13:38:03.668Z,2.33
2023-03-22T13:40:37.759Z,2.35
2023-03-22T13:43:21.815Z,3.15
2023-03-22T13:46:06.838Z,2.92
2023-03-22T13:48:44.405Z,2.50
2023-03-22T13:51:17.906Z,2.08
2023-03-22T13:53:57.191Z,3.10
2023-03-22T13:56:34.776Z,3.22
2023-03-22T13:59:05.119Z,2.88
2023-03-22T14:01:37.585Z,2.72
2023-03-22T14:04:10.621Z,2.65
2023-03-22T14:06:46.904Z,2.80
2023-03-22T14:09:23.931Z,2.83
2023-03-22T14:11:58.094Z,2.90
2023-03-22T14:14:30.963Z,3.58
2023-03-22T14:17:04.967Z,3.60
2023-03-22T14:19:35.741Z,4.38
